Nearby METAR Reports

 

KORH - Worcester, Massachusetts, USA
Distance from station: NW 4mi, 7km
Updated: Thu, 19-Jul-2018 11:54am EDT
Clear
Clear
 Wind from WNW
Wind: WNW 5 mph , 7 km/h
Temperature: 72°F , 22°C
Dew Point: 48°F , 9°C
Humidity: 44%
Barometer: 30.12 inHg , 1020 hPa
Clouds: Clear
Visibility: 10 miles , 16 km
2018/07/19 15:54 KORH 191554Z 29004KT 10SM CLR 22/09 A3012
KBOS - Boston, Massachusetts, USA
Distance from station: ENE 42mi, 68km
Updated: Thu, 19-Jul-2018 11:54am EDT
Few Clouds
Few Clouds
 Wind from SE
Wind: SE 10 mph , 17 km/h
Temperature: 73°F , 23°C
Dew Point: 48°F , 9°C
Humidity: 41%
Barometer: 30.10 inHg , 1019.3 hPa
Clouds: Few Clouds
Visibility: 10 miles , 16 km
Cloud details: Few Clouds 5000 ft
2018/07/19 15:54 KBOS 191554Z 13009KT 10SM FEW050 23/09 A3010 RMK AO2 SLP191 T02330089
 
KCQX - Chatham, Massachusetts, USA
Distance from station: SE 102mi, 164km
Updated: Thu, 19-Jul-2018 11:52am EDT
Clear
Clear
 Wind from ENE
Wind: ENE 12 mph , 19 km/h
Temperature: 73°F , 23°C
Dew Point: 55°F , 13°C
Humidity: 53%
Barometer: 30.10 inHg , 1019.3 hPa
Clouds: Clear
Visibility: 10 miles , 16 km
2018/07/19 15:52 KCQX 191552Z AUTO 06010KT 10SM CLR 23/13 A3010 RMK AO2 SLP193 T02330128 TSNO
KMVY - Marthas Vineyard, Massachusetts, USA
Distance from station: SE 84mi, 135km
Updated: Thu, 19-Jul-2018 11:53am EDT
Clear
Clear
 Wind from ENE
Wind: ENE 9 mph , 15 km/h
Temperature: 77°F , 25°C
Dew Point: 59°F , 15°C
Humidity: 54%
Barometer: 30.09 inHg , 1019 hPa
Clouds: Clear
Visibility: 10 miles , 16 km
2018/07/19 15:53 KMVY 191553Z 06008KT 10SM CLR 25/15 A3009 RMK AO2 SLP190 T02500150
 
KPVC - Provincetown, Massachusetts, USA
Distance from station: NNW 85mi, 136km
Updated: Thu, 19-Jul-2018 11:56am EDT
Clear
Clear
 Wind from N
Wind: N 8 mph , 13 km/h
Temperature: 72°F , 22°C
Dew Point: 59°F , 15°C
Humidity: 65%
Barometer: 30.11 inHg , 1019.6 hPa
Clouds: Clear
Visibility: 10 miles , 16 km
2018/07/19 15:56 KPVC 191556Z AUTO 36007KT 10SM CLR 22/15 A3011 RMK AO2 SLP196 T02170150
KAQW - Savoy, Massachusetts, USA
Distance from station: NNW 66mi, 106km
Updated: Thu, 19-Jul-2018 11:52am EDT
Clear
Clear
 Wind from calm
Wind: Calm
Temperature: 72°F , 22°C
Dew Point: 48°F , 9°C
Humidity: 44%
Barometer: 30.13 inHg , 1020.3 hPa
Clouds: Clear
Visibility: 10 miles , 16 km
2018/07/19 15:52 KAQW 191552Z AUTO 00000KT 10SM CLR 22/09 A3013 RMK AO2 SLP201 T02220094
 
KIZG - Fryeburg, Maine, USA
Distance from station: NNE 133mi, 214km
Updated: Thu, 19-Jul-2018 11:54am EDT
Clear
Clear
 Wind from varies
Wind: varies 6 mph , 9 km/h
Temperature: 75°F , 24°C
Dew Point: 46°F , 8°C
Humidity: 36%
Barometer: 30.09 inHg , 1019 hPa
Clouds: Clear
Visibility: 10 miles , 16 km
2018/07/19 15:54 KIZG 191554Z AUTO VRB05KT 10SM CLR 24/08 A3009 RMK AO2 SLP189 T02440078
KMWN - Mt Washington, New Hampshire, USA
Distance from station: NNE 146mi, 234km
Updated: Thu, 19-Jul-2018 11:54am EDT
Few Clouds
Few Clouds
 Wind from W
Wind: W 2 mph , 4 km/h
Temperature: 50°F , 10°C
Dew Point: 39°F , 4°C
Humidity: 67%
Clouds: Few Clouds
Visibility: 100 miles , 160 km
Cloud details: Few Clouds 600 ft
Few Clouds 1000 ft
Few Clouds 10000 ft
Few Clouds 20000 ft
2018/07/19 15:54 KMWN 191554Z 27002KT 100SM FEW006 FEW010 FEW100 FEW200 10/04 RMK
 
KBML - Berlin, New Hampshire, USA
Distance from station: NNE 160mi, 257km
Updated: Thu, 19-Jul-2018 11:52am EDT
Clear
Clear
 Wind from calm
Wind: Calm
Temperature: 73°F , 23°C
Dew Point: 46°F , 8°C
Humidity: 38%
Barometer: 30.10 inHg , 1019.3 hPa
Clouds: Clear
Visibility: 10 miles , 16 km
2018/07/19 15:52 KBML 191552Z AUTO 00000KT 10SM CLR 23/08 A3010 RMK AO2 SLP195 T02280078